Time;durP1;ratioP1;P1;durP2;ratioP2;P2;SDS_P1;SDS_P2;PMS_P1;PMS_P2;Temp;Humidity;BMP_temperature;BMP_pressure;BME280_temperature;BME280_humidity;BME280_pressure;Samples;Min_cycle;Max_cycle;Signal;HPM_P1;HPM_P2
2023/09/21 00:00:59;;;;;;;0.40;0.40;;;18.50;78.70;;;;;;6184648;23;20421;-74
2023/09/21 00:03:27;;;;;;;0.75;0.50;;;18.50;78.90;;;;;;6184050;23;20001;-74
2023/09/21 00:05:54;;;;;;;0.60;0.40;;;18.50;79.00;;;;;;6183903;23;20032;-74
2023/09/21 00:08:20;;;;;;;0.40;0.40;;;18.40;79.10;;;;;;6182331;23;20408;-74
2023/09/21 00:10:46;;;;;;;0.88;0.50;;;18.30;79.10;;;;;;6183580;23;20009;-74
2023/09/21 00:13:12;;;;;;;1.70;0.50;;;18.30;79.10;;;;;;6184734;23;20092;-74
2023/09/21 00:15:40;;;;;;;0.50;0.50;;;18.20;79.20;;;;;;6182000;23;20024;-73
2023/09/21 00:18:06;;;;;;;0.75;0.57;;;18.20;79.90;;;;;;6157406;23;20445;-74
2023/09/21 00:20:42;;;;;;;1.13;0.60;;;18.20;79.30;;;;;;6184254;23;20044;-74
2023/09/21 00:23:08;;;;;;;0.40;0.40;;;18.20;79.40;;;;;;6182182;23;20009;-74
2023/09/21 00:25:35;;;;;;;0.43;0.40;;;18.10;79.40;;;;;;6182136;23;20012;-74
2023/09/21 00:28:11;;;;;;;0.52;0.40;;;18.10;79.40;;;;;;6183954;23;20032;-73
2023/09/21 00:30:37;;;;;;;0.50;0.50;;;18.00;79.40;;;;;;6184251;23;20426;-74
2023/09/21 00:33:07;;;;;;;0.32;0.32;;;18.00;79.50;;;;;;6184171;23;20017;-74
2023/09/21 00:35:39;;;;;;;0.32;0.32;;;18.00;79.50;;;;;;6183966;23;20024;-73
2023/09/21 00:38:08;;;;;;;0.95;0.50;;;18.00;79.50;;;;;;6182187;23;20036;-74
2023/09/21 00:40:38;;;;;;;0.50;0.40;;;18.00;79.50;;;;;;6183975;23;20013;-74
2023/09/21 00:43:06;;;;;;;0.68;0.52;;;18.00;79.50;;;;;;6183599;23;20035;-74
2023/09/21 00:45:36;;;;;;;0.95;0.50;;;17.90;79.50;;;;;;6183821;23;20429;-74
2023/09/21 00:48:03;;;;;;;0.47;0.47;;;17.90;79.50;;;;;;6183491;23;20008;-74
2023/09/21 00:50:30;;;;;;;0.50;0.50;;;17.90;79.50;;;;;;6183602;23;20329;-73
2023/09/21 00:52:56;;;;;;;0.50;0.50;;;17.90;79.50;;;;;;6183574;23;20496;-73
2023/09/21 00:55:28;;;;;;;0.70;0.60;;;17.80;79.50;;;;;;6184429;23;20036;-73
2023/09/21 00:57:57;;;;;;;0.50;0.40;;;18.00;79.60;;;;;;6182070;23;20392;-73
2023/09/21 01:00:25;;;;;;;0.40;0.40;;;17.80;79.50;;;;;;6184123;23;20023;-73
2023/09/21 01:02:53;;;;;;;0.63;0.50;;;17.80;79.60;;;;;;6183648;23;20013;-73
2023/09/21 01:05:21;;;;;;;0.35;0.35;;;17.80;79.60;;;;;;6183533;23;20016;-73
2023/09/21 01:07:48;;;;;;;0.95;0.50;;;17.80;79.60;;;;;;6182153;23;20009;-73
2023/09/21 01:10:15;;;;;;;0.50;0.50;;;17.80;79.60;;;;;;6158015;23;20444;-73
2023/09/21 01:12:44;;;;;;;0.73;0.50;;;17.80;79.60;;;;;;6183999;23;21131;-74
2023/09/21 01:15:10;;;;;;;0.65;0.60;;;17.70;79.60;;;;;;6182069;23;20108;-74
2023/09/21 01:17:39;;;;;;;0.50;0.50;;;17.70;79.60;;;;;;6183663;23;20099;-73
2023/09/21 01:20:23;;;;;;;0.60;0.50;;;17.80;79.60;;;;;;6182874;23;20013;-74
2023/09/21 01:23:07;;;;;;;0.60;0.60;;;17.70;79.50;;;;;;6183716;23;20104;-73
2023/09/21 01:25:33;;;;;;;0.93;0.57;;;17.70;79.50;;;;;;6183804;23;20140;-73
2023/09/21 01:27:59;;;;;;;0.40;0.40;;;17.70;79.60;;;;;;6181821;23;20013;-74
2023/09/21 01:30:25;;;;;;;0.82;0.60;;;17.60;79.60;;;;;;6181703;23;20075;-73
2023/09/21 01:32:52;;;;;;;0.40;0.40;;;17.60;79.60;;;;;;6183520;23;20008;-73
2023/09/21 01:35:19;;;;;;;1.02;0.40;;;17.60;79.60;;;;;;6183572;23;20333;-73
2023/09/21 01:37:45;;;;;;;0.38;0.38;;;17.60;79.70;;;;;;6157466;23;20341;-73
2023/09/21 01:40:15;;;;;;;0.45;0.45;;;17.60;79.80;;;;;;6184068;23;20001;-74
2023/09/21 01:42:41;;;;;;;1.92;0.38;;;17.50;79.70;;;;;;6183753;23;20012;-73
2023/09/21 01:45:13;;;;;;;0.47;0.47;;;17.60;80.30;;;;;;6183280;23;20001;-73
2023/09/21 01:47:39;;;;;;;0.60;0.60;;;17.60;79.40;;;;;;6181897;23;20503;-73
2023/09/21 01:50:10;;;;;;;0.63;0.40;;;17.70;79.40;;;;;;6184053;23;20040;-74
2023/09/21 01:52:36;;;;;;;0.60;0.60;;;17.70;79.30;;;;;;6183621;23;20016;-73
2023/09/21 01:55:05;;;;;;;0.40;0.40;;;17.80;79.00;;;;;;6182327;23;20017;-74
2023/09/21 01:57:32;;;;;;;0.73;0.70;;;17.80;78.90;;;;;;6182012;23;20020;-74
2023/09/21 01:59:58;;;;;;;0.47;0.45;;;17.90;78.80;;;;;;6157909;23;20514;-73
2023/09/21 02:02:23;;;;;;;1.10;0.68;;;17.90;78.60;;;;;;6181679;23;20016;-73
2023/09/21 02:04:49;;;;;;;0.80;0.80;;;17.80;78.60;;;;;;6183437;23;20005;-73
2023/09/21 02:07:15;;;;;;;0.63;0.60;;;17.90;78.70;;;;;;6183067;23;20043;-73
2023/09/21 02:09:41;;;;;;;0.63;0.55;;;17.90;78.60;;;;;;6183166;23;20087;-73
2023/09/21 02:12:07;;;;;;;1.13;0.77;;;18.00;78.50;;;;;;6180416;23;20043;-73
2023/09/21 02:14:32;;;;;;;0.57;0.52;;;18.00;78.30;;;;;;6182807;23;20016;-73
2023/09/21 02:16:58;;;;;;;0.93;0.68;;;18.10;78.20;;;;;;6181559;23;20033;-73
2023/09/21 02:19:24;;;;;;;0.55;0.50;;;18.10;78.00;;;;;;6183167;23;20340;-73
2023/09/21 02:21:50;;;;;;;0.55;0.50;;;18.20;77.90;;;;;;6181236;23;20020;-73
2023/09/21 02:24:16;;;;;;;0.60;0.60;;;18.20;77.90;;;;;;6181328;23;20076;-73
2023/09/21 02:26:42;;;;;;;1.35;0.68;;;18.10;77.90;;;;;;6181863;23;20008;-74
2023/09/21 02:29:12;;;;;;;0.98;0.40;;;18.20;78.10;;;;;;6182721;23;20001;-74
2023/09/21 02:31:38;;;;;;;1.00;0.60;;;18.20;78.10;;;;;;6157392;23;20013;-74
2023/09/21 02:34:04;;;;;;;0.57;0.50;;;18.10;78.10;;;;;;6181429;23;20864;-74
2023/09/21 02:36:31;;;;;;;0.70;0.50;;;18.10;78.00;;;;;;6181779;23;20009;-73
2023/09/21 02:38:57;;;;;;;0.73;0.32;;;18.20;77.90;;;;;;6182873;23;20009;-73
2023/09/21 02:41:23;;;;;;;0.60;0.60;;;18.30;77.80;;;;;;6182564;23;20013;-73
2023/09/21 02:43:49;;;;;;;0.70;0.50;;;18.30;77.50;;;;;;6156259;23;20021;-73
2023/09/21 02:46:15;;;;;;;0.93;0.65;;;18.30;77.40;;;;;;6183005;23;20337;-73
2023/09/21 02:48:41;;;;;;;0.52;0.52;;;18.40;77.40;;;;;;6182998;23;20036;-73
2023/09/21 02:51:06;;;;;;;0.50;0.50;;;18.40;77.30;;;;;;6182726;23;20430;-73
2023/09/21 02:53:32;;;;;;;1.23;0.70;;;18.50;77.40;;;;;;6182560;23;20493;-73
2023/09/21 02:55:59;;;;;;;1.40;0.70;;;18.60;77.20;;;;;;6183287;23;20009;-73
2023/09/21 02:58:26;;;;;;;1.08;0.70;;;18.60;76.80;;;;;;6181186;23;20021;-73
2023/09/21 03:00:52;;;;;;;0.95;0.65;;;18.70;76.70;;;;;;6182259;23;20771;-73
2023/09/21 03:03:20;;;;;;;0.50;0.50;;;18.80;77.20;;;;;;6183122;23;20009;-74
2023/09/21 03:05:47;;;;;;;0.85;0.60;;;18.80;76.30;;;;;;6184353;23;20040;-73
2023/09/21 03:08:14;;;;;;;0.65;0.63;;;18.80;76.30;;;;;;6182872;23;20005;-73
2023/09/21 03:10:45;;;;;;;0.98;0.63;;;18.80;76.30;;;;;;6184275;23;20009;-73
2023/09/21 03:13:21;;;;;;;0.75;0.57;;;18.90;76.30;;;;;;6183061;23;20009;-73
2023/09/21 03:15:49;;;;;;;0.50;0.50;;;19.00;76.10;;;;;;6184475;23;20016;-73
2023/09/21 03:18:15;;;;;;;0.82;0.47;;;18.90;76.00;;;;;;6183137;23;19997;-73
2023/09/21 03:20:43;;;;;;;1.10;0.80;;;18.90;76.20;;;;;;6182614;23;20028;-73
2023/09/21 03:23:10;;;;;;;0.75;0.70;;;18.90;76.30;;;;;;6183012;23;20358;-73
2023/09/21 03:25:42;;;;;;;0.73;0.70;;;19.00;76.30;;;;;;6158121;23;20008;-73
2023/09/21 03:28:12;;;;;;;0.50;0.50;;;19.00;76.10;;;;;;6184208;23;20426;-73
2023/09/21 03:30:40;;;;;;;;;;;19.00;76.00;;;;;;6184672;23;20643;-73
2023/09/21 03:33:06;;;;;;;1.38;0.60;;;19.00;75.90;;;;;;6183121;23;20343;-74
2023/09/21 03:35:32;;;;;;;0.50;0.50;;;19.10;75.90;;;;;;6184142;23;20028;-74
2023/09/21 03:37:59;;;;;;;0.57;0.47;;;19.00;75.90;;;;;;6182504;23;20009;-73
2023/09/21 03:40:25;;;;;;;0.93;0.60;;;19.00;76.00;;;;;;6184564;23;20075;-74
2023/09/21 03:42:55;;;;;;;0.40;0.40;;;19.00;76.10;;;;;;6184646;23;20088;-74
2023/09/21 03:45:25;;;;;;;0.80;0.60;;;18.90;76.30;;;;;;6184001;23;20503;-73
2023/09/21 03:47:55;;;;;;;0.85;0.40;;;18.90;76.50;;;;;;6182458;23;20010;-74
2023/09/21 03:50:25;;;;;;;0.88;0.50;;;19.00;76.40;;;;;;6184659;23;20013;-74
2023/09/21 03:52:53;;;;;;;0.70;0.57;;;18.90;76.30;;;;;;6182789;23;20448;-73
2023/09/21 03:55:19;;;;;;;0.50;0.50;;;19.00;76.50;;;;;;6179806;23;20381;-73
2023/09/21 03:57:47;;;;;;;0.70;0.60;;;18.90;76.40;;;;;;6184078;23;20016;-73
2023/09/21 04:02:57;;;;;;;1.15;0.57;;;18.80;76.40;;;;;;6182688;23;20028;-74
2023/09/21 04:05:26;;;;;;;0.45;0.45;;;18.80;76.60;;;;;;6184071;23;20005;-73
2023/09/21 04:07:52;;;;;;;1.08;0.63;;;18.80;77.40;;;;;;6184911;23;20013;-74
2023/09/21 04:10:17;;;;;;;0.60;0.57;;;18.80;76.90;;;;;;6158009;23;20429;-74
2023/09/21 04:12:44;;;;;;;0.57;0.50;;;18.70;76.90;;;;;;6183845;23;20001;-74
2023/09/21 04:15:11;;;;;;;0.80;0.50;;;18.80;76.90;;;;;;6176539;23;20005;-74
2023/09/21 04:17:39;;;;;;;0.40;0.40;;;18.70;77.00;;;;;;6182885;23;20012;-74
2023/09/21 04:20:11;;;;;;;0.40;0.40;;;18.70;77.10;;;;;;6184804;23;20001;-74
2023/09/21 04:22:39;;;;;;;0.47;0.47;;;18.60;77.20;;;;;;6183148;23;20017;-73
2023/09/21 04:25:09;;;;;;;0.85;0.50;;;18.60;77.40;;;;;;6183394;23;20013;-74
2023/09/21 04:27:38;;;;;;;0.68;0.60;;;18.60;77.60;;;;;;6184303;23;20005;-73
2023/09/21 04:30:08;;;;;;;0.52;0.40;;;18.50;77.70;;;;;;6158422;23;20385;-74
2023/09/21 04:32:35;;;;;;;0.75;0.57;;;18.50;77.80;;;;;;6158938;23;20017;-74
2023/09/21 04:35:03;;;;;;;1.02;0.45;;;18.50;77.90;;;;;;6184157;23;20013;-74
2023/09/21 04:37:29;;;;;;;0.88;0.40;;;18.50;78.00;;;;;;6182447;23;20016;-74
2023/09/21 04:39:55;;;;;;;2.03;0.50;;;18.40;78.00;;;;;;6185736;23;20013;-75
2023/09/21 04:42:21;;;;;;;0.30;0.30;;;18.40;78.00;;;;;;6190589;23;20096;-75
2023/09/21 04:44:46;;;;;;;0.40;0.40;;;18.40;78.10;;;;;;6188458;23;20095;-75
2023/09/21 04:47:12;;;;;;;0.57;0.52;;;18.40;78.10;;;;;;6187974;23;20015;-74
2023/09/21 04:49:38;;;;;;;0.30;0.30;;;18.40;78.20;;;;;;6187476;23;20092;-75
2023/09/21 04:52:04;;;;;;;0.40;0.40;;;18.30;78.20;;;;;;6189826;23;20016;-74
2023/09/21 04:54:30;;;;;;;0.40;0.40;;;18.40;78.40;;;;;;6186500;23;20013;-75
2023/09/21 04:56:59;;;;;;;0.75;0.60;;;18.30;78.30;;;;;;6188258;23;20015;-74
2023/09/21 04:59:25;;;;;;;0.40;0.40;;;18.30;78.40;;;;;;6189930;23;20032;-75
2023/09/21 05:01:51;;;;;;;0.50;0.50;;;18.30;78.50;;;;;;6190353;23;20008;-75
2023/09/21 05:04:17;;;;;;;0.30;0.30;;;18.30;78.50;;;;;;6188059;23;19998;-75
2023/09/21 05:06:43;;;;;;;0.68;0.40;;;18.30;78.60;;;;;;6161930;23;20365;-75
2023/09/21 05:09:10;;;;;;;0.50;0.50;;;18.20;78.60;;;;;;6189362;23;20005;-75
2023/09/21 05:11:38;;;;;;;0.40;0.40;;;18.20;78.80;;;;;;6163205;23;20342;-75
2023/09/21 05:14:05;;;;;;;0.50;0.50;;;18.30;78.80;;;;;;6189610;23;20333;-75
2023/09/21 05:16:32;;;;;;;0.35;0.35;;;18.20;78.80;;;;;;6189493;23;20013;-76
2023/09/21 05:18:58;;;;;;;0.50;0.40;;;18.20;78.80;;;;;;6195894;23;20064;-75
2023/09/21 05:21:24;;;;;;;1.38;0.70;;;18.20;78.90;;;;;;6169796;23;20030;-74
2023/09/21 05:23:50;;;;;;;0.47;0.47;;;18.20;79.00;;;;;;6189041;23;20013;-74
2023/09/21 05:26:15;;;;;;;0.30;0.30;;;18.10;79.00;;;;;;6182387;23;20457;-74
2023/09/21 05:28:41;;;;;;;0.47;0.45;;;18.10;79.10;;;;;;6186214;23;20080;-75
2023/09/21 05:31:09;;;;;;;0.30;0.30;;;18.20;79.20;;;;;;6184002;23;20020;-75
2023/09/21 05:33:36;;;;;;;1.00;0.47;;;18.10;79.10;;;;;;6185658;23;20012;-75
2023/09/21 05:36:04;;;;;;;0.35;0.32;;;18.10;79.10;;;;;;6184505;23;20044;-76
2023/09/21 05:38:32;;;;;;;0.75;0.57;;;18.10;79.10;;;;;;6183704;23;20021;-75
2023/09/21 05:41:03;;;;;;;0.30;0.30;;;18.20;79.30;;;;;;6186677;23;20455;-75
2023/09/21 05:43:29;;;;;;;0.40;0.40;;;18.20;79.20;;;;;;6162073;23;20015;-75
2023/09/21 05:45:56;;;;;;;0.88;0.50;;;18.20;79.20;;;;;;6186382;23;20012;-75
2023/09/21 05:48:22;;;;;;;0.47;0.30;;;18.20;79.20;;;;;;6185857;23;20024;-75
2023/09/21 05:50:48;;;;;;;0.82;0.50;;;18.20;79.20;;;;;;6158848;23;20432;-75
2023/09/21 05:53:14;;;;;;;0.60;0.40;;;18.10;79.10;;;;;;6185616;23;20009;-75
2023/09/21 05:55:43;;;;;;;0.60;0.50;;;18.10;79.20;;;;;;6183890;23;20005;-75
2023/09/21 05:58:09;;;;;;;0.50;0.50;;;18.10;79.30;;;;;;6185822;23;20105;-75
2023/09/21 06:00:35;;;;;;;0.40;0.40;;;18.10;79.40;;;;;;6184889;23;20013;-75
2023/09/21 06:03:01;;;;;;;0.60;0.45;;;18.10;79.50;;;;;;6187038;23;20009;-76
2023/09/21 06:05:27;;;;;;;0.52;0.40;;;18.10;79.50;;;;;;6185808;23;20448;-74
2023/09/21 06:07:54;;;;;;;0.40;0.40;;;18.00;79.60;;;;;;6183502;23;20040;-75
2023/09/21 06:10:22;;;;;;;0.63;0.35;;;18.10;79.60;;;;;;6181381;23;20043;-77
2023/09/21 06:12:48;;;;;;;0.30;0.30;;;18.10;79.70;;;;;;6182090;23;20397;-76
2023/09/21 06:15:13;;;;;;;0.45;0.38;;;18.10;79.80;;;;;;6181431;23;20041;-75
2023/09/21 06:17:40;;;;;;;0.47;0.32;;;18.10;79.80;;;;;;6156770;23;20009;-75
2023/09/21 06:20:07;;;;;;;0.50;0.40;;;18.00;79.80;;;;;;6181920;23;20009;-75
2023/09/21 06:22:33;;;;;;;0.73;0.70;;;18.10;79.90;;;;;;6181632;23;20044;-75
2023/09/21 06:25:00;;;;;;;0.38;0.35;;;18.00;79.90;;;;;;6132499;23;20012;-75
2023/09/21 06:27:26;;;;;;;0.95;0.55;;;18.00;80.00;;;;;;6181452;23;20046;-75
2023/09/21 06:29:52;;;;;;;0.40;0.40;;;18.00;80.00;;;;;;6157605;23;20013;-76
2023/09/21 06:32:18;;;;;;;0.65;0.55;;;18.10;80.00;;;;;;6179645;23;20503;-75
2023/09/21 06:34:45;;;;;;;0.75;0.40;;;18.10;80.00;;;;;;6181716;23;20035;-76
2023/09/21 06:37:12;;;;;;;1.17;0.60;;;18.10;80.00;;;;;;6181575;23;20051;-74
2023/09/21 06:39:37;;;;;;;0.93;0.50;;;18.10;79.90;;;;;;6185140;23;20056;-75
2023/09/21 06:42:03;;;;;;;0.47;0.47;;;18.10;79.90;;;;;;6183820;23;20437;-75
2023/09/21 06:44:29;;;;;;;0.43;0.43;;;18.10;79.80;;;;;;6164339;23;20013;-75
2023/09/21 06:46:56;;;;;;;0.40;0.40;;;18.10;79.80;;;;;;6207391;23;20024;-75
2023/09/21 06:49:22;;;;;;;0.30;0.30;;;18.10;79.90;;;;;;6203805;23;20012;-76
2023/09/21 06:51:49;;;;;;;0.50;0.50;;;18.10;80.00;;;;;;6206601;23;19989;-76
2023/09/21 06:54:15;;;;;;;0.65;0.52;;;18.10;80.00;;;;;;6211531;23;20869;-76
2023/09/21 06:56:41;;;;;;;0.90;0.50;;;18.10;80.10;;;;;;6182007;23;20001;-75
2023/09/21 06:59:07;;;;;;;0.40;0.40;;;18.00;80.20;;;;;;6205146;23;20005;-75
2023/09/21 07:01:34;;;;;;;1.00;0.65;;;18.00;80.30;;;;;;6191925;23;20319;-74
2023/09/21 07:04:00;;;;;;;0.50;0.50;;;18.10;81.00;;;;;;6193388;23;20477;-74
2023/09/21 07:06:26;;;;;;;0.50;0.50;;;18.00;80.50;;;;;;6166007;23;20005;-75
2023/09/21 07:08:52;;;;;;;0.52;0.50;;;18.00;80.60;;;;;;6188564;23;20012;-75
2023/09/21 07:11:19;;;;;;;2.00;0.75;;;18.10;80.70;;;;;;6184996;23;20421;-74
2023/09/21 07:13:46;;;;;;;1.15;0.73;;;18.00;80.70;;;;;;6184401;23;20043;-74
2023/09/21 07:16:12;;;;;;;1.63;0.90;;;18.00;80.70;;;;;;6183786;23;20012;-75
2023/09/21 07:18:39;;;;;;;0.80;0.60;;;18.00;80.80;;;;;;6159460;23;20013;-74
2023/09/21 07:21:05;;;;;;;0.68;0.60;;;18.00;80.90;;;;;;6186774;23;20009;-74
2023/09/21 07:23:31;;;;;;;1.05;0.70;;;17.90;80.90;;;;;;6190049;23;20893;-74
2023/09/21 07:25:57;;;;;;;1.15;0.70;;;18.00;81.00;;;;;;6191218;23;20013;-74
2023/09/21 07:28:24;;;;;;;0.88;0.63;;;17.90;81.00;;;;;;6190226;23;20009;-74
2023/09/21 07:30:52;;;;;;;1.00;0.60;;;17.90;81.10;;;;;;6187131;23;20056;-75
2023/09/21 07:33:20;;;;;;;0.90;0.80;;;18.00;81.20;;;;;;6184488;23;20013;-74
2023/09/21 07:35:48;;;;;;;0.75;0.75;;;17.90;81.80;;;;;;6184152;23;20012;-75
2023/09/21 07:38:14;;;;;;;0.60;0.60;;;17.90;81.30;;;;;;6184367;23;20055;-74
2023/09/21 07:40:40;;;;;;;0.93;0.80;;;17.90;81.30;;;;;;6184379;23;20009;-74
2023/09/21 07:43:06;;;;;;;1.77;0.73;;;17.90;81.30;;;;;;6182762;23;20009;-75
2023/09/21 07:45:32;;;;;;;1.27;0.80;;;17.90;81.40;;;;;;6158030;23;20058;-75
2023/09/21 07:47:59;;;;;;;1.88;0.98;;;17.90;81.50;;;;;;6158306;23;20437;-75
2023/09/21 07:50:27;;;;;;;1.50;0.90;;;17.80;81.50;;;;;;6157565;23;20048;-75
2023/09/21 07:52:56;;;;;;;1.25;0.90;;;17.80;81.60;;;;;;6184372;23;20012;-75
2023/09/21 07:55:22;;;;;;;2.08;1.00;;;17.80;81.70;;;;;;6183406;23;20052;-75
2023/09/21 07:57:50;;;;;;;0.90;0.80;;;17.80;81.90;;;;;;6184602;23;20013;-74
2023/09/21 08:00:16;;;;;;;1.70;0.80;;;17.80;82.00;;;;;;6182335;23;20013;-75
2023/09/21 08:02:42;;;;;;;1.48;1.08;;;17.80;82.00;;;;;;6184085;23;20079;-74
2023/09/21 08:05:09;;;;;;;1.25;1.00;;;17.80;82.00;;;;;;6184451;23;20005;-75
2023/09/21 08:07:36;;;;;;;1.58;0.82;;;17.80;82.10;;;;;;6182912;23;20017;-75
2023/09/21 08:10:03;;;;;;;0.88;0.70;;;17.80;82.20;;;;;;6183954;23;20009;-75
2023/09/21 08:12:30;;;;;;;1.13;0.82;;;17.70;82.30;;;;;;6182698;23;20480;-74
2023/09/21 08:14:57;;;;;;;1.15;0.75;;;17.70;82.40;;;;;;6183032;23;20024;-75
2023/09/21 08:17:23;;;;;;;0.55;0.50;;;17.70;83.20;;;;;;6182869;23;20063;-74
2023/09/21 08:19:49;;;;;;;1.02;0.70;;;17.70;82.70;;;;;;6182214;23;20433;-74
2023/09/21 08:22:15;;;;;;;1.00;0.70;;;17.70;82.80;;;;;;6184573;23;20016;-74
2023/09/21 08:24:41;;;;;;;1.35;0.85;;;17.60;82.80;;;;;;6183993;23;20446;-74
2023/09/21 08:27:08;;;;;;;1.05;0.90;;;17.70;83.00;;;;;;6184138;23;20059;-74
2023/09/21 08:29:34;;;;;;;0.70;0.70;;;17.70;83.10;;;;;;6184775;23;20001;-75
2023/09/21 08:31:59;;;;;;;0.90;0.73;;;17.60;83.10;;;;;;6157946;23;20019;-74
2023/09/21 08:34:25;;;;;;;0.70;0.70;;;17.60;83.20;;;;;;6183362;23;20015;-74
2023/09/21 08:36:51;;;;;;;0.85;0.60;;;17.60;83.30;;;;;;6184041;23;19997;-75
2023/09/21 08:39:17;;;;;;;1.27;0.85;;;17.60;83.30;;;;;;6184657;23;20005;-74
2023/09/21 08:41:48;;;;;;;0.75;0.70;;;17.60;83.40;;;;;;6184402;23;20020;-74
2023/09/21 08:44:16;;;;;;;1.48;0.88;;;17.70;83.50;;;;;;6158248;23;20015;-75
2023/09/21 08:46:44;;;;;;;0.88;0.60;;;17.60;83.60;;;;;;6158306;23;20009;-75
2023/09/21 08:49:10;;;;;;;1.00;0.82;;;17.60;83.60;;;;;;6182515;23;20092;-74
2023/09/21 08:51:40;;;;;;;1.38;0.90;;;17.60;83.70;;;;;;6182482;23;20013;-74
2023/09/21 08:54:07;;;;;;;1.52;0.95;;;17.60;83.90;;;;;;6182417;23;20016;-74
2023/09/21 08:56:36;;;;;;;1.38;0.93;;;17.50;83.80;;;;;;6183221;23;20008;-75
2023/09/21 08:59:04;;;;;;;1.00;0.73;;;17.60;83.90;;;;;;6184038;23;19997;-74
2023/09/21 09:01:30;;;;;;;1.70;0.75;;;17.60;84.00;;;;;;6182428;23;20009;-75
2023/09/21 09:03:56;;;;;;;2.13;1.00;;;17.60;84.10;;;;;;6182365;23;20047;-75
2023/09/21 09:06:22;;;;;;;0.88;0.80;;;17.60;84.20;;;;;;6183250;23;20009;-75
2023/09/21 09:08:49;;;;;;;0.47;0.47;;;17.60;84.30;;;;;;6184231;23;20019;-75
2023/09/21 09:11:34;;;;;;;0.85;0.68;;;17.60;84.40;;;;;;6183169;23;20012;-74
2023/09/21 09:14:01;;;;;;;0.73;0.60;;;17.60;84.50;;;;;;6183795;23;20100;-75
2023/09/21 09:16:28;;;;;;;0.73;0.70;;;17.60;84.60;;;;;;6184322;23;20013;-75
2023/09/21 09:18:58;;;;;;;0.90;0.80;;;17.60;84.60;;;;;;6192288;23;20028;-75
2023/09/21 09:21:25;;;;;;;0.88;0.77;;;17.60;84.70;;;;;;6183966;23;20009;-75
2023/09/21 09:23:50;;;;;;;0.93;0.77;;;17.60;84.70;;;;;;6157889;23;20437;-75
2023/09/21 09:26:19;;;;;;;0.60;0.50;;;17.60;84.80;;;;;;6183207;23;20024;-75
2023/09/21 09:28:45;;;;;;;1.27;0.60;;;17.60;84.80;;;;;;6183966;23;20005;-75
2023/09/21 09:31:11;;;;;;;0.80;0.63;;;17.60;84.90;;;;;;6182182;23;20005;-75
2023/09/21 09:33:38;;;;;;;0.50;0.50;;;17.60;85.00;;;;;;6157345;23;20063;-75
2023/09/21 09:36:04;;;;;;;0.73;0.60;;;17.60;85.10;;;;;;6157312;23;20016;-75
2023/09/21 09:38:33;;;;;;;0.75;0.60;;;17.50;85.20;;;;;;6181975;23;20058;-75
2023/09/21 09:41:04;;;;;;;1.27;0.70;;;17.50;85.30;;;;;;6183567;23;20025;-75
2023/09/21 09:43:30;;;;;;;0.70;0.60;;;17.50;85.40;;;;;;6182107;23;20017;-74
2023/09/21 09:46:00;;;;;;;0.57;0.50;;;17.40;85.40;;;;;;6184163;23;20075;-75
2023/09/21 09:48:28;;;;;;;0.32;0.32;;;17.40;85.60;;;;;;6183657;23;20441;-75
2023/09/21 09:50:55;;;;;;;0.47;0.30;;;17.40;85.70;;;;;;6182465;23;20083;-75
2023/09/21 09:53:23;;;;;;;0.60;0.43;;;17.30;85.80;;;;;;6182338;23;20087;-74
2023/09/21 09:55:53;;;;;;;1.20;0.55;;;17.30;86.00;;;;;;6183212;23;20012;-75
2023/09/21 09:58:19;;;;;;;0.60;0.43;;;17.30;86.10;;;;;;6182416;23;20013;-75
2023/09/21 10:00:45;;;;;;;1.27;0.40;;;17.30;86.00;;;;;;6181745;23;20017;-75
2023/09/21 10:03:12;;;;;;;0.60;0.50;;;17.20;86.00;;;;;;6133197;23;20083;-74
2023/09/21 10:05:42;;;;;;;0.40;0.40;;;17.30;86.10;;;;;;6182424;23;20009;-74
2023/09/21 10:08:08;;;;;;;0.20;0.20;;;17.30;86.00;;;;;;6182463;23;20009;-75
2023/09/21 10:10:42;;;;;;;0.60;0.50;;;17.30;85.90;;;;;;6182319;23;20001;-74
2023/09/21 10:13:08;;;;;;;0.32;0.32;;;17.40;86.00;;;;;;6157510;23;20059;-75
2023/09/21 10:15:34;;;;;;;0.40;0.40;;;17.40;86.00;;;;;;6183896;23;20012;-75
2023/09/21 10:18:01;;;;;;;0.38;0.38;;;17.50;86.00;;;;;;6181861;23;20376;-75
2023/09/21 10:20:29;;;;;;;0.30;0.30;;;17.40;86.00;;;;;;6157404;23;20060;-75
2023/09/21 10:22:58;;;;;;;0.32;0.32;;;17.30;86.10;;;;;;6181739;23;20075;-74
2023/09/21 10:25:44;;;;;;;0.35;0.30;;;17.40;86.10;;;;;;6181373;23;20009;-75
2023/09/21 10:28:37;;;;;;;0.43;0.43;;;17.40;86.10;;;;;;6181501;23;20143;-74
2023/09/21 10:31:22;;;;;;;0.32;0.32;;;17.40;86.10;;;;;;6183705;23;20009;-75
2023/09/21 10:34:09;;;;;;;0.25;0.25;;;17.40;86.10;;;;;;6182239;23;20012;-75
2023/09/21 10:36:42;;;;;;;0.38;0.30;;;17.40;86.20;;;;;;6136087;23;20016;-75
2023/09/21 10:39:26;;;;;;;0.35;0.35;;;17.40;86.10;;;;;;6183195;23;20009;-75
2023/09/21 10:41:55;;;;;;;0.75;0.40;;;17.40;86.10;;;;;;6135494;23;20358;-75
2023/09/21 10:44:56;;;;;;;0.40;0.40;;;17.50;86.20;;;;;;6157197;23;20079;-74
2023/09/21 10:47:28;;;;;;;;;;;17.50;86.10;;;;;;6183649;23;20020;-74
2023/09/21 10:49:57;;;;;;;0.30;0.30;;;17.60;86.10;;;;;;6183531;23;19951;-74
2023/09/21 10:52:27;;;;;;;0.22;0.22;;;17.60;85.90;;;;;;6183433;23;20017;-75
2023/09/21 10:54:54;;;;;;;0.20;0.20;;;17.60;85.70;;;;;;6181297;23;20121;-75
2023/09/21 10:57:24;;;;;;;0.30;0.30;;;17.70;85.60;;;;;;6182747;23;20032;-75
2023/09/21 10:59:52;;;;;;;0.38;0.38;;;17.70;85.50;;;;;;6156786;23;20009;-74
2023/09/21 11:02:19;;;;;;;0.28;0.22;;;17.80;85.40;;;;;;6181186;23;20315;-75
2023/09/21 11:04:45;;;;;;;0.77;0.50;;;17.80;85.40;;;;;;6183236;23;19998;-75
2023/09/21 11:07:13;;;;;;;0.47;0.40;;;17.90;85.40;;;;;;6182013;23;20322;-75
2023/09/21 11:09:40;;;;;;;0.30;0.30;;;17.90;85.30;;;;;;6181099;23;20035;-75
2023/09/21 11:12:08;;;;;;;0.20;0.20;;;18.00;85.20;;;;;;6181138;23;20032;-76
2023/09/21 11:14:34;;;;;;;0.75;0.45;;;18.00;85.30;;;;;;6183136;23;20071;-75
2023/09/21 11:17:00;;;;;;;0.40;0.40;;;18.00;85.20;;;;;;6180749;23;20013;-75
2023/09/21 11:19:26;;;;;;;0.55;0.50;;;18.00;85.10;;;;;;6183265;23;20036;-74
2023/09/21 11:21:52;;;;;;;0.52;0.50;;;18.10;85.20;;;;;;6182673;23;20036;-76
2023/09/21 11:24:18;;;;;;;0.50;0.50;;;18.10;85.20;;;;;;6183043;23;20009;-75
2023/09/21 11:26:46;;;;;;;0.65;0.57;;;18.20;85.20;;;;;;6182925;23;20016;-75
2023/09/21 11:29:14;;;;;;;0.50;0.50;;;18.20;85.10;;;;;;6158746;23;20020;-74
2023/09/21 11:31:44;;;;;;;0.73;0.60;;;18.20;85.00;;;;;;6159513;23;20013;-74
2023/09/21 11:34:11;;;;;;;0.60;0.50;;;18.30;85.10;;;;;;6183465;23;20096;-74
2023/09/21 11:36:37;;;;;;;0.32;0.32;;;18.30;85.10;;;;;;6183412;23;20059;-74
2023/09/21 11:39:08;;;;;;;0.55;0.50;;;18.30;85.10;;;;;;6184994;23;20489;-75
2023/09/21 11:41:34;;;;;;;0.43;0.43;;;18.30;85.20;;;;;;6165613;23;20052;-75
2023/09/21 11:44:04;;;;;;;0.45;0.40;;;18.30;85.30;;;;;;6194001;23;20017;-75
2023/09/21 11:46:30;;;;;;;0.50;0.50;;;18.10;85.40;;;;;;6190006;23;20005;-75
2023/09/21 11:48:58;;;;;;;0.40;0.40;;;17.90;85.80;;;;;;6188404;23;20009;-75
2023/09/21 11:51:28;;;;;;;0.68;0.55;;;17.90;86.10;;;;;;6182808;23;20008;-76
2023/09/21 11:53:58;;;;;;;0.40;0.40;;;17.70;86.20;;;;;;6184248;23;20012;-76
2023/09/21 11:56:24;;;;;;;0.40;0.40;;;17.60;86.40;;;;;;6185247;23;20052;-76
2023/09/21 11:58:50;;;;;;;0.40;0.30;;;17.60;86.70;;;;;;6183853;23;20009;-75
2023/09/21 12:01:19;;;;;;;0.52;0.30;;;17.60;86.80;;;;;;6183466;23;20005;-75
2023/09/21 12:03:46;;;;;;;0.68;0.50;;;17.60;86.80;;;;;;6185319;23;20088;-76
2023/09/21 12:06:12;;;;;;;0.30;0.30;;;17.50;86.80;;;;;;6185978;23;20429;-75
2023/09/21 12:08:38;;;;;;;0.68;0.40;;;17.50;86.90;;;;;;6190047;23;20005;-75
2023/09/21 12:11:04;;;;;;;0.50;0.40;;;17.40;86.90;;;;;;6185940;23;20079;-75
2023/09/21 12:13:30;;;;;;;0.30;0.30;;;17.40;87.00;;;;;;6159051;23;20457;-76
2023/09/21 12:15:56;;;;;;;0.40;0.40;;;17.30;87.10;;;;;;6186537;23;20400;-76
2023/09/21 12:18:22;;;;;;;0.47;0.40;;;17.30;87.20;;;;;;6164117;23;20020;-76
2023/09/21 12:20:51;;;;;;;0.35;0.35;;;17.30;87.20;;;;;;6186208;23;20039;-74
2023/09/21 12:23:17;;;;;;;0.93;0.43;;;17.20;87.10;;;;;;6185942;23;20114;-74
2023/09/21 12:25:43;;;;;;;0.75;0.45;;;17.20;87.20;;;;;;6187951;23;20389;-75
2023/09/21 12:28:11;;;;;;;0.68;0.40;;;17.10;87.30;;;;;;6187690;23;20039;-74
2023/09/21 12:30:38;;;;;;;0.70;0.40;;;17.00;87.20;;;;;;6162099;23;20005;-75
2023/09/21 12:33:06;;;;;;;0.40;0.40;;;17.00;87.50;;;;;;6161469;23;20461;-75
2023/09/21 12:35:32;;;;;;;0.40;0.40;;;16.90;87.70;;;;;;6158476;23;20013;-76
2023/09/21 12:37:59;;;;;;;0.40;0.40;;;16.80;87.70;;;;;;6184021;23;20013;-76
2023/09/21 12:40:24;;;;;;;0.30;0.30;;;16.80;87.90;;;;;;6184842;23;20005;-76
2023/09/21 12:42:52;;;;;;;0.40;0.40;;;16.70;87.80;;;;;;6183026;23;20017;-79
2023/09/21 12:45:17;;;;;;;0.40;0.40;;;16.70;87.90;;;;;;6134287;23;20028;-77
2023/09/21 12:47:44;;;;;;;0.30;0.30;;;16.70;88.40;;;;;;6164053;23;20005;-79
2023/09/21 12:50:11;;;;;;;0.30;0.30;;;16.60;87.80;;;;;;6136983;23;20043;-79
2023/09/21 12:52:38;;;;;;;0.32;0.32;;;16.60;87.90;;;;;;6172513;23;19997;-80